Terminal Aerodrome Forecast
Issued by NWS North Platte, NE

Home | Current Version | Previous Version | Text Only | Print | Product List | Glossary On
Versions: 1 2 3 4 5 6 7 8 9 10 11 12 13 14
621
FTUS43 KLBF 050520
TAFLBF
TAF
KLBF 050520Z 0506/0606 20008KT P6SM FEW100 BKN200
     FM050800 21007KT P6SM BKN110
     FM051700 30008KT P6SM BKN100
     FM051900 32014G21KT P6SM BKN120
     FM052300 35012G18KT P6SM SCT070 BKN150
     FM060100 36008KT P6SM FEW050 BKN090=

USA.gov is the U.S. government's official web portal to all federal, state and local government web resources and services.